createdAt,value
2023-04-24T00:00:16.311Z,97583.88
2023-04-24T00:02:51.048Z,97563.00
2023-04-24T00:05:40.953Z,97576.06
2023-04-24T00:08:30.976Z,97536.47
2023-04-24T00:11:18.310Z,97570.19
2023-04-24T00:13:45.218Z,97574.44
2023-04-24T00:16:12.127Z,97550.00
2023-04-24T00:18:39.058Z,97563.00
2023-04-24T00:21:06.366Z,97560.56
2023-04-24T00:23:33.298Z,97557.56
2023-04-24T00:26:00.215Z,97549.16
2023-04-24T00:28:27.097Z,97549.97
2023-04-24T00:30:54.011Z,97526.31
2023-04-24T00:33:21.593Z,97544.25
2023-04-24T00:35:48.974Z,97546.09
2023-04-24T00:38:17.246Z,97536.09
2023-04-24T00:40:44.809Z,97532.75
2023-04-24T00:43:13.118Z,97536.53
2023-04-24T00:45:40.029Z,97532.69
2023-04-24T00:48:07.824Z,97531.16
2023-04-24T00:50:36.962Z,97523.19
2023-04-24T00:53:04.002Z,97518.22
2023-04-24T00:55:31.872Z,97516.84
2023-04-24T00:57:58.816Z,97516.25
2023-04-24T01:00:26.681Z,97528.38
2023-04-24T01:02:54.608Z,97518.94
2023-04-24T01:05:41.551Z,97518.25
2023-04-24T01:08:29.641Z,97517.81
2023-04-24T01:11:18.951Z,97506.72
2023-04-24T01:14:09.168Z,97508.03
2023-04-24T01:16:53.809Z,97511.56
2023-04-24T01:19:20.971Z,97505.19
2023-04-24T01:21:52.069Z,97512.03
2023-04-24T01:24:20.657Z,97506.25
2023-04-24T01:26:48.308Z,97499.50
2023-04-24T01:29:15.373Z,97501.63
2023-04-24T01:31:42.779Z,97498.84
2023-04-24T01:34:09.915Z,97497.41
2023-04-24T01:36:37.509Z,97486.75
2023-04-24T01:39:04.864Z,97497.13
2023-04-24T01:41:31.897Z,97495.34
2023-04-24T01:43:59.605Z,97496.31
2023-04-24T01:46:27.270Z,97498.00
2023-04-24T01:48:54.786Z,97483.59
2023-04-24T01:51:21.730Z,97487.47
2023-04-24T01:53:48.780Z,97480.41
2023-04-24T01:56:16.072Z,97479.41
2023-04-24T01:58:43.982Z,97481.75
2023-04-24T02:01:16.564Z,97471.69
2023-04-24T02:03:43.882Z,97482.53
2023-04-24T02:06:11.123Z,97468.66
2023-04-24T02:08:38.044Z,97473.06
2023-04-24T02:11:05.085Z,97464.44
2023-04-24T02:13:31.959Z,97465.66
2023-04-24T02:16:00.218Z,97469.44
2023-04-24T02:18:27.122Z,97463.22
2023-04-24T02:20:54.210Z,97467.31
2023-04-24T02:23:21.305Z,97462.50
2023-04-24T02:25:48.584Z,97464.41
2023-04-24T02:28:15.693Z,97453.66
2023-04-24T02:30:42.740Z,97467.84
2023-04-24T02:33:09.606Z,97451.75
2023-04-24T02:35:36.580Z,97430.63
2023-04-24T02:38:04.338Z,97447.53
2023-04-24T02:40:31.501Z,97441.44
2023-04-24T02:42:58.375Z,97440.44
2023-04-24T02:45:25.460Z,97434.66
2023-04-24T02:47:52.438Z,97445.41
2023-04-24T02:50:19.414Z,97447.03
2023-04-24T02:52:46.312Z,97450.56
2023-04-24T02:55:13.260Z,97447.88
2023-04-24T02:57:40.192Z,97432.16
2023-04-24T03:00:08.472Z,97424.84
2023-04-24T03:02:35.499Z,97442.19
2023-04-24T03:05:03.653Z,97441.81
2023-04-24T03:07:30.948Z,97445.53
2023-04-24T03:09:59.302Z,97442.84
2023-04-24T03:12:26.731Z,97416.63
2023-04-24T03:14:53.620Z,97441.03
2023-04-24T03:17:20.742Z,97443.50
2023-04-24T03:19:47.656Z,97444.56
2023-04-24T03:22:14.836Z,97444.13
2023-04-24T03:24:41.816Z,97441.88
2023-04-24T03:27:08.836Z,97436.50
2023-04-24T03:29:35.831Z,97439.19
2023-04-24T03:32:02.868Z,97439.38
2023-04-24T03:34:29.834Z,97437.75
2023-04-24T03:36:56.766Z,97445.63
2023-04-24T03:39:23.732Z,97442.06
2023-04-24T03:41:50.719Z,97437.56
2023-04-24T03:44:17.586Z,97442.97
2023-04-24T03:46:44.467Z,97445.69
2023-04-24T03:49:11.534Z,97443.66
2023-04-24T03:51:38.399Z,97445.53
2023-04-24T03:54:05.311Z,97448.16
2023-04-24T03:56:32.228Z,97451.72
2023-04-24T03:58:59.079Z,97442.13
2023-04-24T04:01:25.979Z,97446.03
2023-04-24T04:03:53.024Z,97449.50
2023-04-24T04:06:20.677Z,97450.13
2023-04-24T04:08:47.693Z,97448.81
2023-04-24T04:11:15.006Z,97432.69
2023-04-24T04:13:41.922Z,97444.22
2023-04-24T04:16:10.546Z,97448.69
2023-04-24T04:18:37.525Z,97447.41
2023-04-24T04:21:04.594Z,97438.22
2023-04-24T04:23:31.706Z,97437.97
2023-04-24T04:25:58.755Z,97440.81
2023-04-24T04:28:25.939Z,97442.34
2023-04-24T04:30:56.235Z,97441.66
2023-04-24T04:33:23.445Z,97429.00
2023-04-24T04:35:50.889Z,97427.66
2023-04-24T04:38:18.072Z,97431.94
2023-04-24T04:40:45.708Z,97426.63
2023-04-24T04:43:14.455Z,97423.25
2023-04-24T04:45:43.387Z,97425.22
2023-04-24T04:48:10.676Z,97431.38
2023-04-24T04:50:37.597Z,97426.28
2023-04-24T04:53:04.558Z,97431.81
2023-04-24T04:55:31.462Z,97431.16
2023-04-24T04:57:58.563Z,97432.50
2023-04-24T05:00:26.713Z,97434.03
2023-04-24T05:02:53.771Z,97437.38
2023-04-24T05:05:21.159Z,97440.47
2023-04-24T05:07:48.061Z,97434.72
2023-04-24T05:10:15.002Z,97433.56
2023-04-24T05:12:42.751Z,97435.94
2023-04-24T05:15:11.681Z,97432.06
2023-04-24T05:17:38.720Z,97438.25
2023-04-24T05:20:10.955Z,97438.47
2023-04-24T05:22:37.836Z,97430.06
2023-04-24T05:25:05.060Z,97435.09
2023-04-24T05:27:31.976Z,97430.44
2023-04-24T05:29:58.905Z,97434.56
2023-04-24T05:32:25.860Z,97419.81
2023-04-24T05:34:52.832Z,97445.75
2023-04-24T05:37:19.861Z,97438.53
2023-04-24T05:39:46.815Z,97435.34
2023-04-24T05:42:13.742Z,97430.28
2023-04-24T05:44:40.610Z,97422.41
2023-04-24T05:47:07.585Z,97425.69
2023-04-24T05:49:34.521Z,97422.94
2023-04-24T05:52:01.434Z,97423.78
2023-04-24T05:54:28.482Z,97420.47
2023-04-24T05:56:56.652Z,97414.19
2023-04-24T05:59:23.581Z,97425.47
2023-04-24T06:01:50.536Z,97418.31
2023-04-24T06:04:17.567Z,97414.66
2023-04-24T06:06:44.634Z,97406.06
2023-04-24T06:09:11.567Z,97410.50
2023-04-24T06:11:38.536Z,97409.75
2023-04-24T06:14:05.698Z,97412.19
2023-04-24T06:16:32.813Z,97407.63
2023-04-24T06:18:59.788Z,97402.72
2023-04-24T06:21:26.990Z,97409.34
2023-04-24T06:23:53.987Z,97401.47
2023-04-24T06:26:21.167Z,97410.13
2023-04-24T06:28:48.110Z,97402.28
2023-04-24T06:31:15.029Z,97409.69
2023-04-24T06:33:42.017Z,97395.59
2023-04-24T06:36:08.999Z,97403.41
2023-04-24T06:38:36.065Z,97398.47
2023-04-24T06:41:03.202Z,97401.47
2023-04-24T06:43:30.068Z,97399.69
2023-04-24T06:45:57.386Z,97390.00
2023-04-24T06:48:25.358Z,97383.16
2023-04-24T06:50:52.569Z,97389.47
2023-04-24T06:53:19.776Z,97364.75
2023-04-24T06:55:47.336Z,97395.72
2023-04-24T06:58:14.436Z,97390.59
2023-04-24T07:00:41.354Z,97385.38
2023-04-24T07:03:08.590Z,97390.22
2023-04-24T07:05:36.498Z,97379.69
2023-04-24T07:08:04.486Z,97384.25
2023-04-24T07:10:31.565Z,97378.75
2023-04-24T07:12:58.564Z,97383.81
2023-04-24T07:15:25.557Z,97327.38
2023-04-24T07:17:52.569Z,97379.44
2023-04-24T07:20:19.665Z,97382.22
2023-04-24T07:22:46.532Z,97369.63
2023-04-24T07:25:13.464Z,97362.50
2023-04-24T07:27:40.444Z,97362.78
2023-04-24T07:30:08.262Z,97370.06
2023-04-24T07:32:35.426Z,97376.75
2023-04-24T07:35:02.439Z,97369.63
2023-04-24T07:37:29.576Z,97374.47
2023-04-24T07:39:56.904Z,97370.06
2023-04-24T07:42:23.836Z,97372.69
2023-04-24T07:44:50.873Z,97357.16
2023-04-24T07:47:17.888Z,97357.97
2023-04-24T07:49:45.112Z,97365.75
2023-04-24T07:52:12.317Z,97352.53
2023-04-24T07:54:39.169Z,97354.91
2023-04-24T07:57:07.951Z,97354.19
2023-04-24T07:59:35.237Z,97351.94
2023-04-24T08:02:02.944Z,97351.13
2023-04-24T08:04:30.184Z,97352.94
2023-04-24T08:06:57.277Z,97352.22
2023-04-24T08:09:25.850Z,97344.50
2023-04-24T08:11:54.662Z,97354.41
2023-04-24T08:14:21.600Z,97343.41
2023-04-24T08:16:48.607Z,97352.13
2023-04-24T08:19:15.701Z,97348.72
2023-04-24T08:21:42.589Z,97342.59
2023-04-24T08:24:09.576Z,97342.59
2023-04-24T08:26:36.625Z,97332.94
2023-04-24T08:29:04.010Z,97329.91
2023-04-24T08:31:30.926Z,97330.03
2023-04-24T08:33:57.784Z,97344.59
2023-04-24T08:36:28.312Z,97338.22
2023-04-24T08:39:00.224Z,97333.75
2023-04-24T08:41:28.578Z,97328.19
2023-04-24T08:43:59.276Z,97329.75
2023-04-24T08:46:27.247Z,97327.78
2023-04-24T08:48:54.622Z,97330.53
2023-04-24T08:51:22.232Z,97333.41
2023-04-24T08:53:49.845Z,97332.78
2023-04-24T08:56:17.600Z,97328.84
2023-04-24T08:58:45.148Z,97320.47
2023-04-24T09:01:13.280Z,97333.78
2023-04-24T09:03:41.400Z,97336.56
2023-04-24T09:06:10.328Z,97328.31
2023-04-24T09:08:37.716Z,97321.94
2023-04-24T09:11:04.956Z,97322.81
2023-04-24T09:13:33.318Z,97329.53
2023-04-24T09:16:01.730Z,97325.34
2023-04-24T09:18:28.770Z,97322.97
2023-04-24T09:21:08.995Z,97317.56
2023-04-24T09:23:36.227Z,97322.47
2023-04-24T09:26:06.365Z,97315.47
2023-04-24T09:28:40.542Z,97318.13
2023-04-24T09:31:08.911Z,97310.22
2023-04-24T09:33:36.467Z,97315.09
2023-04-24T09:36:04.462Z,97310.78
2023-04-24T09:38:35.654Z,97303.81
2023-04-24T09:41:04.983Z,97287.69
2023-04-24T09:43:32.509Z,97299.25
2023-04-24T09:46:00.924Z,97291.56
2023-04-24T09:48:38.595Z,97289.41
2023-04-24T09:51:12.546Z,97297.38
2023-04-24T09:53:42.674Z,97292.41
2023-04-24T09:56:11.238Z,97290.28
2023-04-24T09:58:38.221Z,97289.81
2023-04-24T10:01:05.584Z,97287.75
2023-04-24T10:03:34.512Z,97286.97
2023-04-24T10:06:10.257Z,97278.53
2023-04-24T10:08:38.873Z,97292.47
2023-04-24T10:11:06.049Z,97289.56
2023-04-24T10:13:34.139Z,97277.94
2023-04-24T10:16:02.348Z,97285.59
2023-04-24T10:18:31.141Z,97279.75
2023-04-24T10:21:01.140Z,97282.88
2023-04-24T10:23:29.506Z,97254.09
2023-04-24T10:25:56.988Z,97279.69
2023-04-24T10:28:25.751Z,97279.75
2023-04-24T10:30:56.195Z,97274.53
2023-04-24T10:33:25.223Z,97270.44
2023-04-24T10:35:53.214Z,97271.88
2023-04-24T10:38:26.753Z,97267.03
2023-04-24T10:41:08.431Z,97271.19
2023-04-24T10:43:35.531Z,97258.97
2023-04-24T10:46:04.442Z,97267.66
2023-04-24T10:48:32.011Z,97257.69
2023-04-24T10:50:59.280Z,97249.53
2023-04-24T10:53:30.311Z,97247.38
2023-04-24T10:56:03.813Z,97249.53
2023-04-24T10:58:41.454Z,97254.59
2023-04-24T11:01:08.797Z,97259.03
2023-04-24T11:03:37.834Z,97254.53
2023-04-24T11:06:07.360Z,97257.75
2023-04-24T11:08:45.007Z,97251.75
2023-04-24T11:11:11.912Z,97255.84
2023-04-24T11:13:57.256Z,97254.63
2023-04-24T11:16:35.576Z,97258.19
2023-04-24T11:19:17.865Z,97263.56
2023-04-24T11:22:05.004Z,97267.69
2023-04-24T11:24:33.107Z,97269.78
2023-04-24T11:27:06.750Z,97236.41
2023-04-24T11:29:51.508Z,97276.78
2023-04-24T11:32:21.292Z,97264.38
2023-04-24T11:34:53.387Z,97281.91
2023-04-24T11:37:20.564Z,97283.19
2023-04-24T11:39:47.633Z,97283.22
2023-04-24T11:42:16.850Z,97274.88
2023-04-24T11:44:44.698Z,97274.88
2023-04-24T11:47:11.646Z,97286.22
2023-04-24T11:49:39.178Z,97283.91
2023-04-24T11:52:06.405Z,97276.06
2023-04-24T11:54:33.487Z,97281.00
2023-04-24T11:57:01.049Z,97282.03
2023-04-24T11:59:28.371Z,97277.38
2023-04-24T12:01:55.322Z,97271.13
2023-04-24T12:04:22.469Z,97271.72
2023-04-24T12:07:03.395Z,97275.84
2023-04-24T12:09:41.385Z,97272.28
2023-04-24T12:12:08.278Z,97264.59
2023-04-24T12:14:50.061Z,97279.41
2023-04-24T12:17:18.031Z,97271.53
2023-04-24T12:19:49.054Z,97265.84
2023-04-24T12:22:16.325Z,97262.59
2023-04-24T12:25:04.463Z,97271.72
2023-04-24T12:27:35.274Z,97267.00
2023-04-24T12:30:04.749Z,97270.41
2023-04-24T12:32:32.057Z,97277.06
2023-04-24T12:34:59.423Z,97269.00
2023-04-24T12:37:27.994Z,97265.81
2023-04-24T12:40:01.957Z,97280.75
2023-04-24T12:42:30.136Z,97255.13
2023-04-24T12:45:08.027Z,97272.84
2023-04-24T12:47:36.279Z,97280.94
2023-04-24T12:50:03.647Z,97279.94
2023-04-24T12:52:31.633Z,97281.22
2023-04-24T12:55:01.006Z,97288.44
2023-04-24T12:57:29.909Z,97280.78
2023-04-24T12:59:58.055Z,97289.53
2023-04-24T13:02:26.236Z,97286.47
2023-04-24T13:04:53.979Z,97278.28
2023-04-24T13:07:21.629Z,97286.69
2023-04-24T13:09:50.449Z,97273.25
2023-04-24T13:12:17.616Z,97270.91
2023-04-24T13:14:45.033Z,97271.66
2023-04-24T13:17:13.159Z,97269.75
2023-04-24T13:19:42.275Z,97259.63
2023-04-24T13:22:12.314Z,97269.84
2023-04-24T13:24:42.011Z,97266.56
2023-04-24T13:27:10.299Z,97264.88
2023-04-24T13:29:38.063Z,97266.63
2023-04-24T13:32:05.195Z,97266.22
2023-04-24T13:34:32.243Z,97271.41
2023-04-24T13:36:59.959Z,97271.63
2023-04-24T13:39:27.727Z,97261.56
2023-04-24T13:41:55.217Z,97261.03
2023-04-24T13:44:23.614Z,97259.19
2023-04-24T13:46:55.323Z,97266.06
2023-04-24T13:49:22.808Z,97260.63
2023-04-24T13:51:49.836Z,97253.81
2023-04-24T13:54:16.764Z,97266.94
2023-04-24T13:56:43.937Z,97261.53
2023-04-24T13:59:10.958Z,97263.47
2023-04-24T14:01:37.973Z,97265.09
2023-04-24T14:04:05.296Z,97253.66
2023-04-24T14:06:32.539Z,97259.66
2023-04-24T14:10:01.615Z,97269.19
2023-04-24T14:12:28.931Z,97263.97
2023-04-24T14:14:55.953Z,97253.56
2023-04-24T14:17:22.998Z,97257.94
2023-04-24T14:19:50.028Z,97274.81
2023-04-24T14:22:17.930Z,97273.75
2023-04-24T14:24:44.938Z,97263.09
2023-04-24T14:27:11.898Z,97270.72
2023-04-24T14:29:38.894Z,97271.50
2023-04-24T14:32:05.944Z,97274.47
2023-04-24T14:34:32.870Z,97271.22
2023-04-24T14:37:00.318Z,97270.66
2023-04-24T14:39:27.268Z,97264.69
2023-04-24T14:41:54.197Z,97273.41
2023-04-24T14:44:21.451Z,97265.50
2023-04-24T14:46:50.688Z,97261.69
2023-04-24T14:49:17.665Z,97247.19
2023-04-24T14:51:44.845Z,97266.31
2023-04-24T14:54:11.874Z,97260.59
2023-04-24T14:56:40.768Z,97266.59
2023-04-24T14:59:08.502Z,97268.22
2023-04-24T15:01:35.744Z,97264.41
2023-04-24T15:04:03.052Z,97272.03
2023-04-24T15:06:32.800Z,97233.25
2023-04-24T15:08:59.785Z,97266.81
2023-04-24T15:11:27.338Z,97260.78
2023-04-24T15:13:54.326Z,97273.34
2023-04-24T15:16:21.843Z,97275.75
2023-04-24T15:18:48.853Z,97252.00
2023-04-24T15:21:15.907Z,97273.81
2023-04-24T15:23:42.934Z,97261.97
2023-04-24T15:26:09.845Z,97278.88
2023-04-24T15:28:36.825Z,97276.63
2023-04-24T15:31:03.803Z,97264.06
2023-04-24T15:33:30.739Z,97271.47
2023-04-24T15:35:57.820Z,97271.97
2023-04-24T15:38:24.796Z,97270.66
2023-04-24T15:40:51.728Z,97274.19
2023-04-24T15:43:18.771Z,97266.03
2023-04-24T15:45:45.792Z,97274.81
2023-04-24T15:48:12.764Z,97276.44
2023-04-24T15:50:39.724Z,97272.16
2023-04-24T15:53:06.895Z,97274.06
2023-04-24T15:55:34.149Z,97265.31
2023-04-24T15:58:02.246Z,97269.72
2023-04-24T16:00:34.439Z,97277.66
2023-04-24T16:03:02.261Z,97274.91
2023-04-24T16:05:29.760Z,97271.59
2023-04-24T16:07:57.230Z,97277.78
2023-04-24T16:10:24.182Z,97278.56
2023-04-24T16:12:53.625Z,97262.09
2023-04-24T16:15:21.534Z,97277.44
2023-04-24T16:17:51.614Z,97273.91
2023-04-24T16:20:18.593Z,97278.53
2023-04-24T16:22:45.663Z,97270.03
2023-04-24T16:25:12.697Z,97273.56
2023-04-24T16:27:39.687Z,97274.66
2023-04-24T16:30:07.326Z,97278.75
2023-04-24T16:32:34.371Z,97270.50
2023-04-24T16:35:01.347Z,97274.81
2023-04-24T16:37:30.728Z,97271.78
2023-04-24T16:39:57.829Z,97272.56
2023-04-24T16:42:24.797Z,97267.38
2023-04-24T16:44:52.060Z,97271.34
2023-04-24T16:47:19.808Z,97265.75
2023-04-24T16:49:46.715Z,97270.06
2023-04-24T16:52:13.688Z,97275.50
2023-04-24T16:54:40.729Z,97264.00
2023-04-24T16:57:08.143Z,97267.53
2023-04-24T16:59:35.500Z,97275.41
2023-04-24T17:02:02.679Z,97261.75
2023-04-24T17:04:30.323Z,97269.66
2023-04-24T17:06:57.399Z,97266.56
2023-04-24T17:09:24.470Z,97257.53
2023-04-24T17:11:51.394Z,97267.06
2023-04-24T17:14:18.475Z,97259.44
2023-04-24T17:16:46.442Z,97264.25
2023-04-24T17:19:13.477Z,97265.56
2023-04-24T17:21:40.515Z,97268.50
2023-04-24T17:24:07.531Z,97257.00
2023-04-24T17:26:34.713Z,97275.78
2023-04-24T17:29:02.424Z,97258.03
2023-04-24T17:31:29.478Z,97266.44
2023-04-24T17:33:56.514Z,97261.25
2023-04-24T17:36:23.526Z,97279.22
2023-04-24T17:38:50.629Z,97264.72
2023-04-24T17:41:17.916Z,97272.56
2023-04-24T17:43:46.003Z,97277.41
2023-04-24T17:46:13.482Z,97278.41
2023-04-24T17:48:41.743Z,97282.63
2023-04-24T17:51:08.867Z,97276.50
2023-04-24T17:53:35.804Z,97276.50
2023-04-24T17:56:04.162Z,97278.34
2023-04-24T17:58:31.620Z,97287.81
2023-04-24T18:00:58.648Z,97281.28
2023-04-24T18:03:25.754Z,97292.66
2023-04-24T18:05:52.788Z,97295.38
2023-04-24T18:08:19.876Z,97295.88
2023-04-24T18:10:47.102Z,97293.66
2023-04-24T18:13:14.108Z,97294.16
2023-04-24T18:15:43.670Z,97296.56
2023-04-24T18:18:11.566Z,97299.19
2023-04-24T18:20:39.307Z,97292.88
2023-04-24T18:23:06.635Z,97287.53
2023-04-24T18:25:33.655Z,97294.00
2023-04-24T18:28:00.794Z,97302.38
2023-04-24T18:30:28.473Z,97299.03
2023-04-24T18:32:55.714Z,97296.25
2023-04-24T18:35:23.409Z,97299.47
2023-04-24T18:37:51.031Z,97308.91
2023-04-24T18:40:18.473Z,97307.50
2023-04-24T18:42:45.593Z,97310.47
2023-04-24T18:45:14.866Z,97316.72
2023-04-24T18:47:42.939Z,97303.66
2023-04-24T18:50:10.816Z,97313.41
2023-04-24T18:52:37.918Z,97316.38
2023-04-24T18:55:07.092Z,97315.25
2023-04-24T18:57:34.528Z,97319.00
2023-04-24T19:00:01.536Z,97299.28
2023-04-24T19:02:28.640Z,97318.69
2023-04-24T19:04:55.883Z,97319.16
2023-04-24T19:07:22.933Z,97311.28
2023-04-24T19:09:50.097Z,97316.44
2023-04-24T19:12:17.156Z,97310.97
2023-04-24T19:14:44.206Z,97315.88
2023-04-24T19:17:11.436Z,97321.81
2023-04-24T19:19:38.484Z,97316.63
2023-04-24T19:22:05.667Z,97309.47
2023-04-24T19:24:33.853Z,97311.44
2023-04-24T19:27:01.912Z,97318.50
2023-04-24T19:29:28.900Z,97316.84
2023-04-24T19:31:58.056Z,97315.22
2023-04-24T19:34:26.356Z,97316.84
2023-04-24T19:36:53.462Z,97311.94
2023-04-24T19:39:20.487Z,97289.16
2023-04-24T19:41:47.462Z,97308.06
2023-04-24T19:44:15.817Z,97315.47
2023-04-24T19:46:43.239Z,97313.50
2023-04-24T19:49:10.314Z,97316.75
2023-04-24T19:51:37.865Z,97299.25
2023-04-24T19:54:06.578Z,97324.91
2023-04-24T19:56:34.058Z,97299.03
2023-04-24T19:59:01.271Z,97319.47
2023-04-24T20:01:28.641Z,97321.13
2023-04-24T20:03:55.991Z,97310.53
2023-04-24T20:06:23.063Z,97298.09
2023-04-24T20:08:50.301Z,97323.28
2023-04-24T20:11:17.597Z,97319.75
2023-04-24T20:13:44.524Z,97320.56
2023-04-24T20:16:11.709Z,97315.16
2023-04-24T20:18:38.845Z,97317.84
2023-04-24T20:21:05.876Z,97313.97
2023-04-24T20:23:32.827Z,97317.25
2023-04-24T20:25:59.833Z,97307.97
2023-04-24T20:28:28.505Z,97312.91
2023-04-24T20:30:55.461Z,97319.97
2023-04-24T20:33:22.627Z,97314.56
2023-04-24T20:35:49.912Z,97304.22
2023-04-24T20:38:18.751Z,97242.44
2023-04-24T20:40:57.668Z,97316.44
2023-04-24T20:43:28.864Z,97305.38
2023-04-24T20:45:58.482Z,97310.19
2023-04-24T20:48:26.934Z,97316.22
2023-04-24T20:50:54.158Z,97318.91
2023-04-24T20:53:24.049Z,97321.63
2023-04-24T20:55:51.197Z,97315.38
2023-04-24T20:58:24.728Z,97310.59
2023-04-24T21:00:52.515Z,97317.75
2023-04-24T21:03:19.934Z,97311.09
2023-04-24T21:05:47.219Z,97316.84
2023-04-24T21:08:14.440Z,97313.81
2023-04-24T21:10:41.666Z,97316.50
2023-04-24T21:13:09.286Z,97309.94
2023-04-24T21:15:36.301Z,97300.78
2023-04-24T21:18:03.787Z,97310.91
2023-04-24T21:20:30.844Z,97299.13
2023-04-24T21:22:57.769Z,97321.75
2023-04-24T21:25:24.762Z,97314.91
2023-04-24T21:27:51.804Z,97315.41
2023-04-24T21:30:19.276Z,97321.53
2023-04-24T21:32:46.292Z,97320.72
2023-04-24T21:35:13.340Z,97312.16
2023-04-24T21:37:40.536Z,97318.56
2023-04-24T21:40:08.448Z,97320.69
2023-04-24T21:42:35.912Z,97317.19
2023-04-24T21:45:03.238Z,97299.19
2023-04-24T21:47:30.218Z,97304.00
2023-04-24T21:49:57.165Z,97312.13
2023-04-24T21:52:24.175Z,97318.84
2023-04-24T21:54:51.095Z,97320.78
2023-04-24T21:57:18.328Z,97324.59
2023-04-24T21:59:46.135Z,97331.94
2023-04-24T22:02:15.247Z,97319.31
2023-04-24T22:04:42.438Z,97331.66
2023-04-24T22:07:10.018Z,97328.06
2023-04-24T22:09:36.952Z,97333.72
2023-04-24T22:12:05.303Z,97335.28
2023-04-24T22:14:32.353Z,97341.81
2023-04-24T22:17:00.799Z,97336.66
2023-04-24T22:19:28.567Z,97337.94
2023-04-24T22:21:55.588Z,97346.72
2023-04-24T22:24:22.554Z,97345.44
2023-04-24T22:26:49.941Z,97337.28
2023-04-24T22:29:16.959Z,97347.75
2023-04-24T22:31:44.122Z,97352.19
2023-04-24T22:34:11.322Z,97349.28
2023-04-24T22:36:38.207Z,97339.47
2023-04-24T22:39:05.957Z,97339.69
2023-04-24T22:41:32.874Z,97351.66
2023-04-24T22:44:00.477Z,97351.22
2023-04-24T22:46:28.187Z,97357.28
2023-04-24T22:48:58.646Z,97355.06
2023-04-24T22:51:26.456Z,97361.13
2023-04-24T22:53:53.370Z,97354.91
2023-04-24T22:56:20.333Z,97357.81
2023-04-24T22:58:47.521Z,97352.72
2023-04-24T23:01:14.496Z,97355.88
2023-04-24T23:03:41.634Z,97356.25
2023-04-24T23:06:08.774Z,97355.06
2023-04-24T23:08:35.670Z,97369.53
2023-04-24T23:11:02.917Z,97364.88
2023-04-24T23:13:29.824Z,97360.00
2023-04-24T23:15:56.861Z,97348.47
2023-04-24T23:18:23.829Z,97340.38
2023-04-24T23:20:50.818Z,97330.97
2023-04-24T23:23:17.891Z,97346.28
2023-04-24T23:25:44.809Z,97345.00
2023-04-24T23:28:11.705Z,97343.66
2023-04-24T23:30:38.677Z,97338.66
2023-04-24T23:33:05.706Z,97337.56
2023-04-24T23:35:32.763Z,97345.59
2023-04-24T23:37:59.950Z,97335.50
2023-04-24T23:40:26.921Z,97335.94
2023-04-24T23:43:05.752Z,97348.38
2023-04-24T23:45:34.783Z,97332.28
2023-04-24T23:48:01.870Z,97337.22
2023-04-24T23:50:28.934Z,97331.97
2023-04-24T23:52:55.908Z,97333.16
2023-04-24T23:55:22.918Z,97341.72
2023-04-24T23:57:49.844Z,97344.41
